createdAt,value
2023-03-01T00:01:26.234Z,49.32
2023-03-01T00:03:55.517Z,49.33
2023-03-01T00:06:24.181Z,49.25
2023-03-01T00:08:52.203Z,49.12
2023-03-01T00:11:28.102Z,48.85
2023-03-01T00:13:58.482Z,49.43
2023-03-01T00:16:28.027Z,49.30
2023-03-01T00:18:57.227Z,48.80
2023-03-01T00:21:25.837Z,49.06
2023-03-01T00:23:53.901Z,48.95
2023-03-01T00:26:23.195Z,49.05
2023-03-01T00:28:51.179Z,49.10
2023-03-01T00:31:21.481Z,49.68
2023-03-01T00:33:49.255Z,49.10
2023-03-01T00:36:17.620Z,49.15
2023-03-01T00:38:46.672Z,49.05
2023-03-01T00:41:16.904Z,49.48
2023-03-01T00:43:45.145Z,49.31
2023-03-01T00:46:15.684Z,49.38
2023-03-01T00:48:43.320Z,49.31
2023-03-01T00:51:12.226Z,49.63
2023-03-01T00:53:40.267Z,49.30
2023-03-01T00:56:12.371Z,49.43
2023-03-01T00:58:40.443Z,49.50
2023-03-01T01:01:19.868Z,50.07
2023-03-01T01:03:52.704Z,49.65
2023-03-01T01:06:32.451Z,49.83
2023-03-01T01:09:01.123Z,49.65
2023-03-01T01:11:30.736Z,49.79
2023-03-01T01:13:59.062Z,49.95
2023-03-01T01:16:29.129Z,50.11
2023-03-01T01:18:57.983Z,49.87
2023-03-01T01:21:26.942Z,49.97
2023-03-01T01:23:54.886Z,50.00
2023-03-01T01:26:26.949Z,50.43
2023-03-01T01:28:55.458Z,50.25
2023-03-01T01:31:26.806Z,50.35
2023-03-01T01:33:55.295Z,50.59
2023-03-01T01:36:22.860Z,50.42
2023-03-01T01:38:50.370Z,50.86
2023-03-01T01:41:18.860Z,51.04
2023-03-01T01:44:10.844Z,50.54
2023-03-01T01:46:41.714Z,50.50
2023-03-01T01:49:20.570Z,50.65
2023-03-01T01:51:50.938Z,50.63
2023-03-01T01:54:30.422Z,51.18
2023-03-01T01:57:03.383Z,50.93
2023-03-01T01:59:33.661Z,50.98
2023-03-01T02:02:04.039Z,50.86
2023-03-01T02:04:33.429Z,51.19
2023-03-01T02:07:17.122Z,51.58
2023-03-01T02:09:49.055Z,50.80
2023-03-01T02:12:18.870Z,51.48
2023-03-01T02:14:46.470Z,51.32
2023-03-01T02:17:17.220Z,51.09
2023-03-01T02:20:22.506Z,51.38
2023-03-01T02:22:51.116Z,51.19
2023-03-01T02:25:19.329Z,51.71
2023-03-01T02:27:59.619Z,51.71
2023-03-01T02:30:28.735Z,51.77
2023-03-01T02:33:03.948Z,51.90
2023-03-01T02:35:36.701Z,51.81
2023-03-01T02:38:07.386Z,52.03
2023-03-01T02:40:37.031Z,52.04
2023-03-01T02:43:09.418Z,52.37
2023-03-01T02:45:37.025Z,52.67
2023-03-01T02:48:04.735Z,52.30
2023-03-01T02:50:32.343Z,52.77
2023-03-01T02:53:12.232Z,52.98
2023-03-01T02:55:40.229Z,52.46
2023-03-01T02:58:09.736Z,52.77
2023-03-01T03:00:48.240Z,52.69
2023-03-01T03:03:21.028Z,52.75
2023-03-01T03:05:50.004Z,52.78
2023-03-01T03:08:25.269Z,53.40
2023-03-01T03:10:54.750Z,52.89
2023-03-01T03:13:29.375Z,52.93
2023-03-01T03:15:57.881Z,53.40
2023-03-01T03:18:28.885Z,53.20
2023-03-01T03:20:56.471Z,53.08
2023-03-01T03:23:24.232Z,53.08
2023-03-01T03:25:52.933Z,53.75
2023-03-01T03:28:20.565Z,53.35
2023-03-01T03:30:48.970Z,53.79
2023-03-01T03:33:16.882Z,53.82
2023-03-01T03:35:47.286Z,53.50
2023-03-01T03:38:17.206Z,53.27
2023-03-01T03:40:46.309Z,53.90
2023-03-01T03:43:19.161Z,53.64
2023-03-01T03:45:48.368Z,54.01
2023-03-01T03:48:16.732Z,54.05
2023-03-01T03:50:50.629Z,54.17
2023-03-01T03:53:18.838Z,53.52
2023-03-01T03:55:50.308Z,54.19
2023-03-01T03:58:20.979Z,54.18
2023-03-01T04:00:51.295Z,54.34
2023-03-01T04:03:21.094Z,54.15
2023-03-01T04:05:50.810Z,54.67
2023-03-01T04:08:23.259Z,54.50
2023-03-01T04:10:57.188Z,54.43
2023-03-01T04:13:26.336Z,54.56
2023-03-01T04:15:55.410Z,54.84
2023-03-01T04:18:27.032Z,54.29
2023-03-01T04:20:56.469Z,54.54
2023-03-01T04:23:24.490Z,54.19
2023-03-01T04:26:00.201Z,54.63
2023-03-01T04:28:37.162Z,54.65
2023-03-01T04:31:14.384Z,54.30
2023-03-01T04:33:44.218Z,54.48
2023-03-01T04:36:13.865Z,54.48
2023-03-01T04:38:41.837Z,54.74
2023-03-01T04:41:11.195Z,54.70
2023-03-01T04:43:39.288Z,54.70
2023-03-01T04:46:15.389Z,54.59
2023-03-01T04:48:45.038Z,55.01
2023-03-01T04:51:14.632Z,54.45
2023-03-01T04:53:45.198Z,54.30
2023-03-01T04:56:15.004Z,54.61
2023-03-01T04:58:43.188Z,54.67
2023-03-01T05:01:20.446Z,54.57
2023-03-01T05:03:50.913Z,54.36
2023-03-01T05:06:20.835Z,54.45
2023-03-01T05:08:48.972Z,54.21
2023-03-01T05:11:16.547Z,53.96
2023-03-01T05:13:44.432Z,53.78
2023-03-01T05:16:12.727Z,53.55
2023-03-01T05:18:41.903Z,53.66
2023-03-01T05:21:17.468Z,53.20
2023-03-01T05:23:48.640Z,53.07
2023-03-01T05:26:33.908Z,52.78
2023-03-01T05:29:02.159Z,52.29
2023-03-01T05:31:31.971Z,51.54
2023-03-01T05:34:00.082Z,51.33
2023-03-01T05:36:27.638Z,51.41
2023-03-01T05:38:55.218Z,50.96
2023-03-01T05:41:22.661Z,51.30
2023-03-01T05:43:50.723Z,51.56
2023-03-01T05:46:18.327Z,51.27
2023-03-01T05:48:49.452Z,51.17
2023-03-01T05:51:18.704Z,51.52
2023-03-01T05:53:46.224Z,51.41
2023-03-01T05:56:13.850Z,51.35
2023-03-01T05:58:41.685Z,51.16
2023-03-01T06:01:14.498Z,50.93
2023-03-01T06:03:42.562Z,51.18
2023-03-01T06:06:11.941Z,50.69
2023-03-01T06:08:39.994Z,50.73
2023-03-01T06:11:08.264Z,50.53
2023-03-01T06:13:39.262Z,50.62
2023-03-01T06:16:08.521Z,50.11
2023-03-01T06:18:37.408Z,50.38
2023-03-01T06:21:06.528Z,49.91
2023-03-01T06:23:34.702Z,50.02
2023-03-01T06:26:06.694Z,49.47
2023-03-01T06:28:34.382Z,49.67
2023-03-01T06:31:02.133Z,49.52
2023-03-01T06:33:32.318Z,49.75
2023-03-01T06:36:00.429Z,49.61
2023-03-01T06:38:28.432Z,48.74
2023-03-01T06:40:57.684Z,48.27
2023-03-01T06:43:27.823Z,47.13
2023-03-01T06:45:55.374Z,46.72
2023-03-01T06:48:23.350Z,46.36
2023-03-01T06:50:50.890Z,45.66
2023-03-01T06:53:18.540Z,45.08
2023-03-01T06:55:46.128Z,44.53
2023-03-01T06:58:14.747Z,43.43
2023-03-01T07:00:44.214Z,43.04
2023-03-01T07:03:12.096Z,42.97
2023-03-01T07:05:40.043Z,42.24
2023-03-01T07:08:07.568Z,41.64
2023-03-01T07:10:35.268Z,40.92
2023-03-01T07:13:03.509Z,39.53
2023-03-01T07:15:31.010Z,39.22
2023-03-01T07:17:59.099Z,38.73
2023-03-01T07:20:26.842Z,38.05
2023-03-01T07:22:56.288Z,37.53
2023-03-01T07:25:28.474Z,38.56
2023-03-01T07:27:56.050Z,38.48
2023-03-01T07:30:27.101Z,38.12
2023-03-01T07:32:56.034Z,37.60
2023-03-01T07:35:26.176Z,37.08
2023-03-01T07:37:54.187Z,37.36
2023-03-01T07:40:21.889Z,37.12
2023-03-01T07:42:49.645Z,36.86
2023-03-01T07:45:17.403Z,36.70
2023-03-01T07:47:44.968Z,36.21
2023-03-01T07:50:12.492Z,36.29
2023-03-01T07:52:40.243Z,36.15
2023-03-01T07:55:08.218Z,36.30
2023-03-01T07:57:35.722Z,36.28
2023-03-01T08:00:04.799Z,36.17
2023-03-01T08:02:41.678Z,36.12
2023-03-01T08:05:11.788Z,35.83
2023-03-01T08:07:42.112Z,35.59
2023-03-01T08:10:11.384Z,34.67
2023-03-01T08:12:40.296Z,35.35
2023-03-01T08:15:11.122Z,34.33
2023-03-01T08:17:39.078Z,33.83
2023-03-01T08:20:11.124Z,33.50
2023-03-01T08:22:38.997Z,33.19
2023-03-01T08:25:06.675Z,32.84
2023-03-01T08:27:34.648Z,32.54
2023-03-01T08:30:02.108Z,31.85
2023-03-01T08:32:30.749Z,31.23
2023-03-01T08:34:58.666Z,30.49
2023-03-01T08:37:26.441Z,29.90
2023-03-01T08:39:55.980Z,29.16
2023-03-01T08:42:24.249Z,28.35
2023-03-01T08:44:51.699Z,27.80
2023-03-01T08:47:19.362Z,27.11
2023-03-01T08:49:46.949Z,26.46
2023-03-01T08:52:14.550Z,25.83
2023-03-01T08:54:42.075Z,25.05
2023-03-01T08:57:10.745Z,24.96
2023-03-01T08:59:38.494Z,24.41
2023-03-01T09:02:13.816Z,22.60
2023-03-01T09:04:46.423Z,22.71
2023-03-01T09:07:14.042Z,22.82
2023-03-01T09:09:44.151Z,21.65
2023-03-01T09:12:14.539Z,21.93
2023-03-01T09:14:43.168Z,21.48
2023-03-01T09:17:12.808Z,20.80
2023-03-01T09:19:41.157Z,20.99
2023-03-01T09:22:09.323Z,21.79
2023-03-01T09:24:36.945Z,22.09
2023-03-01T09:27:04.352Z,21.91
2023-03-01T09:29:31.920Z,22.26
2023-03-01T09:32:00.188Z,22.39
2023-03-01T09:34:29.725Z,22.56
2023-03-01T09:36:59.525Z,22.48
2023-03-01T09:39:27.869Z,21.58
2023-03-01T09:42:05.355Z,20.50
2023-03-01T09:44:52.851Z,21.57
2023-03-01T09:47:25.385Z,22.38
2023-03-01T09:50:10.896Z,21.46
2023-03-01T09:52:55.700Z,20.92
2023-03-01T09:55:40.576Z,22.10
2023-03-01T09:58:36.309Z,22.20
2023-03-01T10:01:19.673Z,21.37
2023-03-01T10:04:06.008Z,21.86
2023-03-01T10:06:35.541Z,22.61
2023-03-01T10:09:17.688Z,22.92
2023-03-01T10:11:52.736Z,23.82
2023-03-01T10:14:42.248Z,23.66
2023-03-01T10:17:25.582Z,25.07
2023-03-01T10:19:53.248Z,25.49
2023-03-01T10:22:24.378Z,26.15
2023-03-01T10:24:54.156Z,27.20
2023-03-01T10:27:26.731Z,28.08
2023-03-01T10:30:17.638Z,28.76
2023-03-01T10:32:45.792Z,29.26
2023-03-01T10:35:17.683Z,29.17
2023-03-01T10:38:09.929Z,27.65
2023-03-01T10:40:52.655Z,27.80
2023-03-01T10:43:20.756Z,28.55
2023-03-01T10:45:48.771Z,28.96
2023-03-01T10:48:27.285Z,29.91
2023-03-01T10:51:01.074Z,29.36
2023-03-01T10:53:41.889Z,29.81
2023-03-01T10:56:14.969Z,30.93
2023-03-01T10:59:21.013Z,31.92
2023-03-01T11:02:24.109Z,31.95
2023-03-01T11:05:01.835Z,32.31
2023-03-01T11:07:32.840Z,31.91
2023-03-01T11:10:13.275Z,32.71
2023-03-01T11:12:41.589Z,32.79
2023-03-01T11:15:22.883Z,33.68
2023-03-01T11:17:57.058Z,32.79
2023-03-01T11:20:34.378Z,33.03
2023-03-01T11:23:14.185Z,32.71
2023-03-01T11:25:45.346Z,32.11
2023-03-01T11:28:18.321Z,31.80
2023-03-01T11:31:07.852Z,29.65
2023-03-01T11:33:49.460Z,28.65
2023-03-01T11:36:23.310Z,28.75
2023-03-01T11:38:51.383Z,28.69
2023-03-01T11:41:25.651Z,27.16
2023-03-01T11:44:00.136Z,26.24
2023-03-01T11:46:33.254Z,26.12
2023-03-01T11:49:22.812Z,24.42
2023-03-01T11:51:57.158Z,25.47
2023-03-01T11:54:40.020Z,25.69
2023-03-01T11:57:43.362Z,24.93
2023-03-01T12:00:45.761Z,26.55
2023-03-01T12:03:32.191Z,28.35
2023-03-01T12:06:25.051Z,28.93
2023-03-01T12:09:24.458Z,30.41
2023-03-01T12:12:04.823Z,31.85
2023-03-01T12:15:08.310Z,33.70
2023-03-01T12:18:10.750Z,34.27
2023-03-01T12:20:49.722Z,34.58
2023-03-01T12:23:36.094Z,35.37
2023-03-01T12:26:09.529Z,35.17
2023-03-01T12:28:43.440Z,35.92
2023-03-01T12:31:31.383Z,36.27
2023-03-01T12:34:11.228Z,35.41
2023-03-01T12:36:48.279Z,35.70
2023-03-01T12:39:34.820Z,35.28
2023-03-01T12:42:14.811Z,34.18
2023-03-01T12:44:57.746Z,33.01
2023-03-01T13:17:32.099Z,38.99
2023-03-01T13:20:00.563Z,38.42
2023-03-01T13:22:35.498Z,39.21
2023-03-01T13:25:42.052Z,40.05
2023-03-01T13:28:38.832Z,39.69
2023-03-01T13:31:31.319Z,40.03
2023-03-01T13:34:00.974Z,39.65
2023-03-01T13:36:29.213Z,40.09
2023-03-01T13:38:58.537Z,40.37
2023-03-01T13:41:44.430Z,41.70
2023-03-01T13:44:29.674Z,41.62
2023-03-01T13:47:05.082Z,41.06
2023-03-01T13:49:51.269Z,42.83
2023-03-01T13:52:34.330Z,42.85
2023-03-01T13:55:05.040Z,41.48
2023-03-01T13:57:37.730Z,42.46
2023-03-01T14:00:06.629Z,41.78
2023-03-01T14:02:35.449Z,42.36
2023-03-01T14:05:02.971Z,42.77
2023-03-01T14:07:31.033Z,42.97
2023-03-01T14:10:07.275Z,44.04
2023-03-01T14:12:50.271Z,44.03
2023-03-01T14:15:28.521Z,43.54
2023-03-01T14:18:18.858Z,43.57
2023-03-01T14:20:52.352Z,43.15
2023-03-01T14:23:23.904Z,43.68
2023-03-01T14:25:54.975Z,43.75
2023-03-01T14:28:28.686Z,44.12
2023-03-01T14:31:00.844Z,44.22
2023-03-01T14:33:30.208Z,44.05
2023-03-01T14:36:01.201Z,44.26
2023-03-01T14:38:35.888Z,44.97
2023-03-01T14:41:11.488Z,44.75
2023-03-01T14:43:42.612Z,43.94
2023-03-01T14:46:39.106Z,45.47
2023-03-01T14:49:18.503Z,45.31
2023-03-01T14:52:29.495Z,45.83
2023-03-01T14:54:58.501Z,44.28
2023-03-01T14:57:28.085Z,44.75
2023-03-01T15:00:07.586Z,45.72
2023-03-01T15:02:36.552Z,45.07
2023-03-01T15:05:08.662Z,45.42
2023-03-01T15:07:50.043Z,46.28
2023-03-01T15:10:44.694Z,45.70
2023-03-01T15:13:25.166Z,46.69
2023-03-01T15:16:03.172Z,46.83
2023-03-01T15:18:31.875Z,46.68
2023-03-01T15:21:48.584Z,48.98
2023-03-01T15:24:25.158Z,48.58
2023-03-01T15:26:59.465Z,47.74
2023-03-01T15:29:34.507Z,48.57
2023-03-01T15:32:07.890Z,48.20
2023-03-01T15:34:38.523Z,48.19
2023-03-01T15:37:28.500Z,48.26
2023-03-01T15:39:58.596Z,48.18
2023-03-01T15:42:26.448Z,47.60
2023-03-01T15:45:22.544Z,48.93
2023-03-01T15:47:59.064Z,48.40
2023-03-01T15:50:29.649Z,47.89
2023-03-01T15:53:00.668Z,47.90
2023-03-01T15:55:31.207Z,47.87
2023-03-01T15:58:07.850Z,48.22
2023-03-01T16:00:35.612Z,47.37
2023-03-01T16:03:03.170Z,47.16
2023-03-01T16:05:36.203Z,46.85
2023-03-01T16:08:04.172Z,46.64
2023-03-01T16:10:32.816Z,46.92
2023-03-01T16:13:01.000Z,46.83
2023-03-01T16:15:33.346Z,46.52
2023-03-01T16:18:12.225Z,46.76
2023-03-01T16:21:38.813Z,47.18
2023-03-01T16:24:44.029Z,47.04
2023-03-01T16:27:56.391Z,47.41
2023-03-01T16:30:57.932Z,47.25
2023-03-01T16:34:42.677Z,47.75
2023-03-01T16:41:07.947Z,48.08
2023-03-01T16:43:42.352Z,47.66
2023-03-01T16:46:20.978Z,48.46
2023-03-01T16:48:49.800Z,48.33
2023-03-01T16:51:51.857Z,48.76
2023-03-01T16:54:47.999Z,48.87
2023-03-01T16:57:39.189Z,48.63
2023-03-01T17:01:06.729Z,48.82
2023-03-01T17:08:27.152Z,47.99
2023-03-01T17:11:35.099Z,48.75
2023-03-01T17:14:06.162Z,47.71
2023-03-01T17:16:37.316Z,47.89
2023-03-01T17:19:14.614Z,48.55
2023-03-01T17:21:53.530Z,48.54
2023-03-01T17:24:21.197Z,47.98
2023-03-01T17:26:48.768Z,48.18
2023-03-01T17:29:18.941Z,48.15
2023-03-01T17:31:46.673Z,48.04
2023-03-01T17:34:14.441Z,48.25
2023-03-01T17:36:44.311Z,48.34
2023-03-01T17:39:11.924Z,48.28
2023-03-01T17:41:39.659Z,48.46
2023-03-01T17:44:07.302Z,48.53
2023-03-01T17:46:35.186Z,48.44
2023-03-01T17:49:02.896Z,48.84
2023-03-01T17:51:32.156Z,49.50
2023-03-01T17:54:00.224Z,49.70
2023-03-01T17:56:32.099Z,49.88
2023-03-01T17:59:00.049Z,49.66
2023-03-01T18:01:34.067Z,50.18
2023-03-01T18:04:01.988Z,49.91
2023-03-01T18:06:30.432Z,50.25
2023-03-01T18:08:58.347Z,50.14
2023-03-01T18:11:26.418Z,50.24
2023-03-01T18:13:55.683Z,50.83
2023-03-01T18:16:23.427Z,50.64
2023-03-01T18:18:55.862Z,50.95
2023-03-01T18:21:23.832Z,50.93
2023-03-01T18:23:51.437Z,50.84
2023-03-01T18:26:22.290Z,51.10
2023-03-01T18:28:51.978Z,51.03
2023-03-01T18:31:22.825Z,51.36
2023-03-01T18:33:55.005Z,51.42
2023-03-01T18:36:31.386Z,51.88
2023-03-01T18:38:59.370Z,51.22
2023-03-01T18:41:28.548Z,51.53
2023-03-01T18:43:57.600Z,51.22
2023-03-01T18:46:26.141Z,51.35
2023-03-01T18:48:54.876Z,51.28
2023-03-01T18:51:28.002Z,52.04
2023-03-01T18:53:58.933Z,51.44
2023-03-01T18:56:31.112Z,51.31
2023-03-01T18:59:00.412Z,51.36
2023-03-01T19:01:30.279Z,51.78
2023-03-01T19:03:58.660Z,51.69
2023-03-01T19:06:31.480Z,51.95
2023-03-01T19:09:00.012Z,52.00
2023-03-01T19:11:30.941Z,51.87
2023-03-01T19:14:00.490Z,52.14
2023-03-01T19:16:30.705Z,52.07
2023-03-01T19:19:02.561Z,52.08
2023-03-01T19:21:32.308Z,52.29
2023-03-01T19:24:03.028Z,52.62
2023-03-01T19:26:31.691Z,52.13
2023-03-01T19:29:00.036Z,52.03
2023-03-01T19:31:29.998Z,52.34
2023-03-01T19:34:10.424Z,52.10
2023-03-01T19:36:42.939Z,52.55
2023-03-01T19:39:19.799Z,52.35
2023-03-01T19:41:55.664Z,52.28
2023-03-01T19:44:26.426Z,52.47
2023-03-01T19:46:58.023Z,52.79
2023-03-01T19:49:26.975Z,52.82
2023-03-01T19:51:54.581Z,52.85
2023-03-01T19:54:22.914Z,52.89
2023-03-01T19:56:53.842Z,53.11
2023-03-01T19:59:24.613Z,53.14
2023-03-01T20:01:52.659Z,53.23
2023-03-01T20:04:20.727Z,53.09
2023-03-01T20:06:49.263Z,53.17
2023-03-01T20:09:21.873Z,52.89
2023-03-01T20:11:51.141Z,53.41
2023-03-01T20:14:22.331Z,53.49
2023-03-01T20:16:51.546Z,53.37
2023-03-01T20:19:19.295Z,53.47
2023-03-01T20:21:46.838Z,53.72
2023-03-01T20:24:14.512Z,53.70
2023-03-01T20:26:42.231Z,53.55
2023-03-01T20:29:09.858Z,53.76
2023-03-01T20:31:38.631Z,54.02
2023-03-01T20:34:06.237Z,54.04
2023-03-01T20:36:35.213Z,54.39
2023-03-01T20:39:03.101Z,54.55
2023-03-01T20:41:30.672Z,54.68
2023-03-01T20:43:59.591Z,55.15
2023-03-01T20:46:30.333Z,55.23
2023-03-01T20:48:58.172Z,55.78
2023-03-01T20:51:26.013Z,56.03
2023-03-01T20:53:53.874Z,56.57
2023-03-01T20:56:23.394Z,56.70
2023-03-01T20:59:09.450Z,57.61
2023-03-01T21:01:38.709Z,57.03
2023-03-01T21:04:06.910Z,57.48
2023-03-01T21:06:34.877Z,57.50
2023-03-01T21:09:05.426Z,57.80
2023-03-01T21:11:33.019Z,57.87
2023-03-01T21:14:00.922Z,58.30
2023-03-01T21:16:28.596Z,58.79
2023-03-01T21:18:56.359Z,58.77
2023-03-01T21:21:24.352Z,59.02
2023-03-01T21:23:52.286Z,59.00
2023-03-01T21:26:27.669Z,60.05
2023-03-01T21:29:01.537Z,59.56
2023-03-01T21:31:34.135Z,59.80
2023-03-01T21:34:04.803Z,59.68
2023-03-01T21:36:33.394Z,59.93
2023-03-01T21:39:02.202Z,59.83
2023-03-01T21:41:32.519Z,60.04
2023-03-01T21:44:03.148Z,60.17
2023-03-01T21:46:34.069Z,60.16
2023-03-01T21:49:05.739Z,60.10
2023-03-01T21:51:34.161Z,60.09
2023-03-01T21:54:01.891Z,60.21
2023-03-01T21:56:32.128Z,60.34
2023-03-01T21:59:01.026Z,60.22
2023-03-01T22:01:31.552Z,60.40
2023-03-01T22:04:03.278Z,60.50
2023-03-01T22:06:40.466Z,60.98
2023-03-01T22:09:12.462Z,60.78
2023-03-01T22:11:43.343Z,60.37
2023-03-01T22:14:13.574Z,60.53
2023-03-01T22:16:44.605Z,60.42
2023-03-01T22:19:14.128Z,60.30
2023-03-01T22:21:43.808Z,60.51
2023-03-01T22:24:12.611Z,60.40
2023-03-01T22:26:45.376Z,61.33
2023-03-01T22:29:30.849Z,61.29
2023-03-01T22:31:59.228Z,60.54
2023-03-01T22:34:27.971Z,60.67
2023-03-01T22:36:56.587Z,60.52
2023-03-01T22:39:25.320Z,60.94
2023-03-01T22:41:54.908Z,60.91
2023-03-01T22:44:23.635Z,60.55
2023-03-01T22:46:54.419Z,60.72
2023-03-01T22:49:23.511Z,60.73
2023-03-01T22:51:51.644Z,60.88
2023-03-01T22:54:20.547Z,60.81
2023-03-01T22:56:49.638Z,60.71
2023-03-01T22:59:25.049Z,60.88
2023-03-01T23:01:54.185Z,60.55
2023-03-01T23:04:24.553Z,60.50
2023-03-01T23:06:54.289Z,60.76
2023-03-01T23:09:33.375Z,61.39
2023-03-01T23:12:02.896Z,60.61
2023-03-01T23:14:31.959Z,60.53
2023-03-01T23:17:01.733Z,60.56
2023-03-01T23:19:30.414Z,60.67
2023-03-01T23:21:58.206Z,60.44
2023-03-01T23:24:31.627Z,60.73
2023-03-01T23:27:21.307Z,62.03
2023-03-01T23:29:51.942Z,60.55
2023-03-01T23:32:19.423Z,60.54
2023-03-01T23:34:46.939Z,60.52
2023-03-01T23:37:14.358Z,60.71
2023-03-01T23:39:41.929Z,60.83
2023-03-01T23:42:09.357Z,60.48
2023-03-01T23:44:38.996Z,60.48
2023-03-01T23:47:06.891Z,60.25
2023-03-01T23:49:34.412Z,60.34
2023-03-01T23:52:02.014Z,60.42
2023-03-01T23:54:29.447Z,60.69
2023-03-01T23:56:56.985Z,60.54
2023-03-01T23:59:24.689Z,60.37
